createdAt,value
2018-12-10T00:02:02.516Z,24.98
2018-12-10T00:04:31.788Z,25.01
2018-12-10T00:07:01.108Z,25.06
2018-12-10T00:09:30.568Z,25.11
2018-12-10T00:12:00.069Z,25.14
2018-12-10T00:14:29.367Z,25.15
2018-12-10T00:16:58.727Z,25.11
2018-12-10T00:19:28.103Z,25.06
2018-12-10T00:21:57.400Z,24.98
2018-12-10T00:24:26.684Z,24.99
2018-12-10T00:26:56.180Z,24.96
2018-12-10T00:29:25.661Z,24.99
2018-12-10T00:31:55.099Z,25.01
2018-12-10T00:34:24.419Z,25.02
2018-12-10T00:36:53.699Z,25.05
2018-12-10T00:39:23.208Z,25.05
2018-12-10T00:41:52.612Z,25.08
2018-12-10T00:44:22.026Z,24.94
2018-12-10T00:46:51.313Z,24.95
2018-12-10T00:49:20.634Z,24.96
2018-12-10T00:51:50.009Z,24.94
2018-12-10T00:54:19.312Z,25.09
2018-12-10T00:56:48.713Z,24.91
2018-12-10T00:59:18.040Z,24.96
2018-12-10T01:01:47.425Z,24.93
2018-12-10T01:04:16.935Z,24.90
2018-12-10T01:06:46.439Z,24.98
2018-12-10T01:09:15.632Z,25.08
2018-12-10T01:11:45.188Z,24.98
2018-12-10T01:14:14.456Z,24.94
2018-12-10T01:16:43.751Z,24.91
2018-12-10T01:19:13.154Z,24.86
2018-12-10T01:21:42.669Z,24.95
2018-12-10T01:24:12.063Z,24.89
2018-12-10T01:26:41.455Z,24.77
2018-12-10T01:29:10.779Z,24.85
2018-12-10T01:31:40.155Z,25.01
2018-12-10T01:34:09.375Z,24.86
2018-12-10T01:36:38.867Z,24.85
2018-12-10T01:39:08.293Z,24.85
2018-12-10T01:41:37.684Z,24.87
2018-12-10T01:44:06.989Z,24.90
2018-12-10T01:46:36.391Z,24.91
2018-12-10T01:49:05.586Z,24.87
2018-12-10T01:51:34.948Z,24.88
2018-12-10T01:54:04.116Z,24.89
2018-12-10T01:56:33.587Z,24.80
2018-12-10T01:59:02.917Z,24.87
2018-12-10T02:01:32.301Z,24.85
2018-12-10T02:04:01.714Z,24.87
2018-12-10T02:06:31.018Z,24.93
2018-12-10T02:09:00.328Z,24.86
2018-12-10T02:11:29.629Z,24.85
2018-12-10T02:13:58.914Z,24.98
2018-12-10T02:16:28.240Z,24.88
2018-12-10T02:18:57.416Z,24.76
2018-12-10T02:21:26.731Z,24.80
2018-12-10T02:23:56.227Z,24.85
2018-12-10T02:26:25.628Z,24.90
2018-12-10T02:28:59.955Z,24.98
2018-12-10T02:31:29.343Z,25.05
2018-12-10T02:33:58.543Z,25.04
2018-12-10T02:36:27.843Z,25.02
2018-12-10T02:38:57.346Z,24.91
2018-12-10T02:41:26.751Z,24.81
2018-12-10T02:43:56.172Z,24.89
2018-12-10T02:46:25.500Z,24.81
2018-12-10T02:48:54.763Z,24.78
2018-12-10T02:51:24.269Z,24.85
2018-12-10T02:53:53.669Z,24.96
2018-12-10T02:56:23.081Z,25.01
2018-12-10T02:58:52.476Z,24.98
2018-12-10T03:01:21.792Z,24.98
2018-12-10T03:03:51.348Z,25.03
2018-12-10T03:06:20.688Z,25.01
2018-12-10T03:08:50.084Z,24.78
2018-12-10T03:11:19.183Z,24.85
2018-12-10T03:13:48.496Z,24.83
2018-12-10T03:16:17.903Z,24.78
2018-12-10T03:18:47.219Z,24.81
2018-12-10T03:21:16.612Z,24.85
2018-12-10T03:23:46.093Z,24.95
2018-12-10T03:26:15.403Z,24.98
2018-12-10T03:28:44.692Z,24.96
2018-12-10T03:31:14.125Z,24.87
2018-12-10T03:33:43.516Z,25.01
2018-12-10T03:36:12.861Z,25.11
2018-12-10T03:38:42.127Z,25.19
2018-12-10T03:41:11.519Z,25.17
2018-12-10T03:43:40.923Z,25.17
2018-12-10T03:46:10.332Z,25.18
2018-12-10T03:48:39.725Z,24.96
2018-12-10T03:51:09.074Z,24.92
2018-12-10T03:53:38.244Z,24.98
2018-12-10T03:56:07.559Z,25.05
2018-12-10T03:58:37.032Z,25.18
2018-12-10T04:01:06.341Z,25.25
2018-12-10T04:03:35.769Z,25.23
2018-12-10T04:06:05.060Z,25.22
2018-12-10T04:08:34.363Z,25.10
2018-12-10T04:11:03.840Z,25.06
2018-12-10T04:13:33.146Z,25.12
2018-12-10T04:16:02.544Z,25.26
2018-12-10T04:18:31.748Z,25.27
2018-12-10T04:21:01.056Z,25.27
2018-12-10T04:23:30.365Z,25.28
2018-12-10T04:25:59.661Z,25.16
2018-12-10T04:28:28.866Z,24.99
2018-12-10T04:30:58.199Z,24.93
2018-12-10T04:33:27.455Z,25.03
2018-12-10T04:35:56.674Z,24.97
2018-12-10T04:38:25.960Z,25.02
2018-12-10T04:40:55.275Z,24.97
2018-12-10T04:43:24.570Z,24.94
2018-12-10T04:45:53.964Z,24.91
2018-12-10T04:48:23.468Z,25.03
2018-12-10T04:50:52.873Z,25.15
2018-12-10T04:53:22.268Z,25.15
2018-12-10T04:55:51.623Z,24.98
2018-12-10T04:58:20.985Z,24.85
2018-12-10T05:00:50.308Z,24.89
2018-12-10T05:03:22.034Z,24.88
2018-12-10T05:05:51.353Z,24.91
2018-12-10T05:08:20.637Z,24.96
2018-12-10T05:10:49.955Z,25.10
2018-12-10T05:13:19.352Z,25.06
2018-12-10T05:15:48.668Z,24.98
2018-12-10T05:18:17.734Z,24.90
2018-12-10T05:20:46.962Z,24.90
2018-12-10T05:23:16.173Z,24.99
2018-12-10T05:25:46.040Z,24.97
2018-12-10T05:28:15.353Z,24.96
2018-12-10T05:30:44.776Z,24.88
2018-12-10T05:33:14.176Z,24.94
2018-12-10T05:35:43.465Z,24.99
2018-12-10T05:38:12.673Z,24.98
2018-12-10T05:40:41.872Z,25.00
2018-12-10T05:43:11.268Z,24.97
2018-12-10T05:45:40.367Z,24.96
2018-12-10T05:48:09.586Z,24.91
2018-12-10T05:50:38.962Z,24.91
2018-12-10T05:53:08.195Z,24.97
2018-12-10T05:55:37.615Z,24.91
2018-12-10T05:58:06.941Z,24.98
2018-12-10T06:00:36.179Z,25.03
2018-12-10T06:03:05.293Z,25.05
2018-12-10T06:05:34.602Z,25.07
2018-12-10T06:08:03.968Z,25.00
2018-12-10T06:10:33.160Z,25.04
2018-12-10T06:13:02.367Z,25.05
2018-12-10T06:15:31.391Z,24.97
2018-12-10T06:18:00.637Z,24.95
2018-12-10T06:20:29.828Z,24.97
2018-12-10T06:22:58.952Z,24.87
2018-12-10T06:25:28.045Z,24.74
2018-12-10T06:27:57.251Z,24.72
2018-12-10T06:30:26.440Z,24.72
2018-12-10T06:32:55.645Z,24.94
2018-12-10T06:35:24.840Z,25.00
2018-12-10T06:37:54.168Z,25.06
2018-12-10T06:40:23.370Z,24.93
2018-12-10T06:42:52.540Z,24.85
2018-12-10T06:45:21.664Z,24.85
2018-12-10T06:47:50.825Z,24.94
2018-12-10T06:50:19.957Z,24.96
2018-12-10T06:52:49.263Z,25.08
2018-12-10T06:55:18.549Z,25.19
2018-12-10T06:57:47.845Z,25.16
2018-12-10T07:00:17.240Z,25.11
2018-12-10T07:02:46.561Z,24.97
2018-12-10T07:05:15.844Z,24.87
2018-12-10T07:07:45.177Z,24.81
2018-12-10T07:10:14.552Z,24.92
2018-12-10T07:12:43.751Z,24.99
2018-12-10T07:15:12.936Z,25.03
2018-12-10T07:17:42.189Z,25.04
2018-12-10T07:20:11.449Z,24.90
2018-12-10T07:22:40.644Z,24.91
2018-12-10T07:25:09.739Z,24.91
2018-12-10T07:27:39.099Z,24.98
2018-12-10T07:30:09.469Z,25.02
2018-12-10T07:32:38.879Z,25.04
2018-12-10T07:35:07.958Z,24.99
2018-12-10T07:37:37.099Z,24.93
2018-12-10T07:40:06.775Z,24.81
2018-12-10T07:42:36.287Z,24.98
2018-12-10T07:45:05.664Z,25.07
2018-12-10T07:47:34.884Z,25.07
2018-12-10T07:50:03.971Z,25.05
2018-12-10T07:52:33.184Z,24.99
2018-12-10T07:55:02.395Z,24.89
2018-12-10T07:57:31.678Z,24.76
2018-12-10T08:00:00.884Z,24.84
2018-12-10T08:02:30.083Z,25.01
2018-12-10T08:04:59.289Z,25.04
2018-12-10T08:07:28.578Z,25.03
2018-12-10T08:09:57.876Z,24.89
2018-12-10T08:12:27.083Z,24.69
2018-12-10T08:14:56.276Z,24.69
2018-12-10T08:17:25.359Z,24.80
2018-12-10T08:19:54.569Z,24.94
2018-12-10T08:22:23.772Z,24.95
2018-12-10T08:24:52.969Z,24.85
2018-12-10T08:27:22.064Z,24.85
2018-12-10T08:29:51.284Z,24.81
2018-12-10T08:32:20.571Z,24.69
2018-12-10T08:34:49.672Z,24.78
2018-12-10T08:37:18.863Z,24.96
2018-12-10T08:39:48.071Z,24.97
2018-12-10T08:42:17.383Z,24.91
2018-12-10T08:44:46.683Z,24.82
2018-12-10T08:47:16.441Z,24.77
2018-12-10T08:49:45.888Z,24.71
2018-12-10T08:52:15.151Z,24.79
2018-12-10T08:54:44.390Z,24.86
2018-12-10T08:57:13.812Z,24.87
2018-12-10T08:59:43.248Z,25.02
2018-12-10T09:02:12.702Z,25.14
2018-12-10T09:04:42.228Z,25.30
2018-12-10T09:07:11.526Z,25.44
2018-12-10T09:09:40.823Z,25.57
2018-12-10T09:12:10.025Z,25.64
2018-12-10T09:14:39.331Z,25.65
2018-12-10T09:17:08.547Z,25.56
2018-12-10T09:19:38.022Z,25.48
2018-12-10T09:22:07.427Z,25.48
2018-12-10T09:24:36.856Z,25.40
2018-12-10T09:27:06.279Z,25.32
2018-12-10T09:29:35.708Z,25.29
2018-12-10T09:32:05.131Z,25.30
2018-12-10T09:34:34.536Z,25.28
2018-12-10T09:37:03.863Z,25.19
2018-12-10T09:39:33.295Z,25.10
2018-12-10T09:42:02.564Z,25.15
2018-12-10T09:44:31.821Z,25.23
2018-12-10T09:47:01.067Z,25.30
2018-12-10T09:49:30.559Z,25.39
2018-12-10T09:51:59.962Z,25.40
2018-12-10T09:54:29.273Z,25.40
2018-12-10T09:56:58.691Z,25.35
2018-12-10T09:59:27.999Z,25.31
2018-12-10T10:01:57.268Z,25.29
2018-12-10T10:04:26.663Z,25.34
2018-12-10T10:06:56.084Z,25.32
2018-12-10T10:09:25.529Z,25.31
2018-12-10T10:11:54.895Z,25.38
2018-12-10T10:14:24.304Z,25.34
2018-12-10T10:16:53.620Z,25.32
2018-12-10T10:19:23.112Z,25.34
2018-12-10T10:21:52.492Z,25.37
2018-12-10T10:24:21.801Z,25.41
2018-12-10T10:26:51.197Z,25.34
2018-12-10T10:29:20.443Z,25.39
2018-12-10T10:31:49.825Z,25.42
2018-12-10T10:34:19.123Z,25.35
2018-12-10T10:36:48.454Z,25.40
2018-12-10T10:39:17.807Z,25.41
2018-12-10T10:41:47.315Z,25.39
2018-12-10T10:44:16.624Z,25.40
2018-12-10T10:46:45.938Z,25.40
2018-12-10T10:49:15.336Z,25.46
2018-12-10T10:51:44.691Z,25.47
2018-12-10T10:54:13.828Z,25.50
2018-12-10T10:56:43.342Z,25.46
2018-12-10T10:59:12.840Z,25.62
2018-12-10T11:01:47.173Z,25.61
2018-12-10T11:04:16.389Z,25.61
2018-12-10T11:06:45.713Z,25.70
2018-12-10T11:09:15.711Z,25.60
2018-12-10T11:11:45.280Z,25.48
2018-12-10T11:14:14.593Z,25.47
2018-12-10T11:16:43.901Z,25.46
2018-12-10T11:19:13.304Z,25.48
2018-12-10T11:21:42.797Z,25.61
2018-12-10T11:24:12.347Z,25.63
2018-12-10T11:26:41.605Z,25.57
2018-12-10T11:29:10.818Z,25.62
2018-12-10T11:31:40.168Z,25.55
2018-12-10T11:34:09.331Z,25.54
2018-12-10T11:36:38.637Z,25.58
2018-12-10T11:39:07.925Z,25.64
2018-12-10T11:41:37.327Z,25.69
2018-12-10T11:44:06.632Z,25.64
2018-12-10T11:46:36.027Z,25.59
2018-12-10T11:49:05.420Z,25.56
2018-12-10T11:51:34.735Z,25.57
2018-12-10T11:54:04.259Z,25.50
2018-12-10T11:56:33.637Z,25.58
2018-12-10T11:59:03.041Z,25.63
2018-12-10T12:01:32.360Z,25.62
2018-12-10T12:04:01.548Z,25.61
2018-12-10T12:06:30.625Z,25.56
2018-12-10T12:08:59.828Z,25.48
2018-12-10T12:11:29.020Z,25.49
2018-12-10T12:13:58.377Z,25.48
2018-12-10T12:16:27.823Z,25.44
2018-12-10T12:18:57.700Z,25.42
2018-12-10T12:21:27.202Z,25.46
2018-12-10T12:23:56.367Z,25.50
2018-12-10T12:26:25.593Z,25.48
2018-12-10T12:28:55.043Z,25.46
2018-12-10T12:31:24.372Z,25.47
2018-12-10T12:33:53.917Z,25.44
2018-12-10T12:36:23.308Z,25.42
2018-12-10T12:38:52.626Z,25.37
2018-12-10T12:41:21.948Z,25.45
2018-12-10T12:43:51.491Z,25.44
2018-12-10T12:46:20.898Z,25.44
2018-12-10T12:48:50.325Z,25.43
2018-12-10T12:51:19.789Z,25.37
2018-12-10T12:53:49.084Z,25.39
2018-12-10T12:56:18.453Z,25.44
2018-12-10T12:58:47.723Z,25.42
2018-12-10T13:01:17.016Z,25.41
2018-12-10T13:03:46.396Z,25.43
2018-12-10T13:06:15.819Z,25.37
2018-12-10T13:08:45.215Z,25.32
2018-12-10T13:11:14.882Z,25.32
2018-12-10T13:13:44.130Z,25.37
2018-12-10T13:16:13.332Z,25.39
2018-12-10T13:18:42.820Z,25.40
2018-12-10T13:21:12.224Z,25.34
2018-12-10T13:23:41.755Z,25.33
2018-12-10T13:26:11.211Z,25.30
2018-12-10T13:28:40.403Z,25.13
2018-12-10T13:31:09.688Z,25.16
2018-12-10T13:33:39.131Z,25.30
2018-12-10T13:36:08.644Z,25.32
2018-12-10T13:38:38.071Z,25.34
2018-12-10T13:41:07.361Z,25.37
2018-12-10T13:43:36.788Z,25.29
2018-12-10T13:46:06.181Z,25.20
2018-12-10T13:48:35.689Z,25.27
2018-12-10T13:51:05.076Z,25.31
2018-12-10T13:53:34.375Z,25.32
2018-12-10T13:56:03.789Z,25.28
2018-12-10T13:58:33.069Z,25.24
2018-12-10T14:01:02.248Z,25.11
2018-12-10T14:03:31.585Z,25.18
2018-12-10T14:06:00.562Z,25.24
2018-12-10T14:08:29.556Z,25.29
2018-12-10T14:10:58.527Z,25.30
2018-12-10T14:13:27.491Z,25.24
2018-12-10T14:15:56.494Z,25.16
2018-12-10T14:18:25.460Z,25.11
2018-12-10T14:20:54.783Z,25.09
2018-12-10T14:23:24.236Z,25.19
2018-12-10T14:25:53.634Z,25.27
2018-12-10T14:28:22.991Z,25.28
2018-12-10T14:30:52.644Z,25.16
2018-12-10T14:33:21.932Z,25.06
2018-12-10T14:35:51.413Z,25.08
2018-12-10T14:38:20.752Z,25.17
2018-12-10T14:40:50.095Z,25.23
2018-12-10T14:43:19.479Z,25.17
2018-12-10T14:45:48.924Z,25.16
2018-12-10T14:48:18.297Z,25.22
2018-12-10T14:50:47.611Z,25.16
2018-12-10T14:53:17.104Z,25.17
2018-12-10T14:55:46.591Z,25.24
2018-12-10T14:58:15.935Z,25.27
2018-12-10T15:00:45.483Z,25.25
2018-12-10T15:03:14.787Z,25.22
2018-12-10T15:05:44.113Z,25.10
2018-12-10T15:08:13.516Z,25.13
2018-12-10T15:10:43.624Z,25.17
2018-12-10T15:13:12.988Z,25.25
2018-12-10T15:15:42.129Z,25.30
2018-12-10T15:18:11.425Z,25.24
2018-12-10T15:20:40.763Z,25.14
2018-12-10T15:23:10.188Z,24.97
2018-12-10T15:25:39.557Z,25.01
2018-12-10T15:28:09.009Z,25.24
2018-12-10T15:30:38.344Z,25.27
2018-12-10T15:33:07.760Z,25.24
2018-12-10T15:35:37.251Z,25.16
2018-12-10T15:38:06.667Z,25.12
2018-12-10T15:40:36.060Z,25.10
2018-12-10T15:43:05.221Z,25.04
2018-12-10T15:45:34.480Z,25.24
2018-12-10T15:48:03.789Z,25.34
2018-12-10T15:50:33.069Z,25.31
2018-12-10T15:53:02.240Z,25.35
2018-12-10T15:55:31.580Z,25.28
2018-12-10T15:58:00.899Z,25.27
2018-12-10T16:00:30.391Z,25.27
2018-12-10T16:02:59.879Z,25.30
2018-12-10T16:05:29.180Z,25.31
2018-12-10T16:07:58.404Z,25.35
2018-12-10T16:10:27.788Z,25.29
2018-12-10T16:12:57.197Z,25.32
2018-12-10T16:15:26.536Z,25.16
2018-12-10T16:17:56.004Z,25.21
2018-12-10T16:20:25.496Z,25.27
2018-12-10T16:22:54.934Z,25.29
2018-12-10T16:25:24.297Z,25.38
2018-12-10T16:27:53.886Z,25.39
2018-12-10T16:30:23.324Z,25.30
2018-12-10T16:32:53.081Z,25.18
2018-12-10T16:35:22.445Z,25.14
2018-12-10T16:37:51.858Z,25.31
2018-12-10T16:40:21.255Z,25.38
2018-12-10T16:42:50.587Z,25.42
2018-12-10T16:45:19.762Z,25.39
2018-12-10T16:47:48.973Z,25.17
2018-12-10T16:50:18.252Z,25.15
2018-12-10T16:52:47.780Z,25.21
2018-12-10T16:55:17.168Z,25.28
2018-12-10T16:57:46.565Z,25.31
2018-12-10T17:00:15.873Z,25.18
2018-12-10T17:02:45.184Z,25.22
2018-12-10T17:05:14.516Z,25.07
2018-12-10T17:07:43.784Z,25.12
2018-12-10T17:10:13.277Z,25.17
2018-12-10T17:12:42.804Z,25.12
2018-12-10T17:15:12.193Z,25.09
2018-12-10T17:17:41.489Z,25.20
2018-12-10T17:20:10.791Z,25.33
2018-12-10T17:22:40.115Z,25.18
2018-12-10T17:25:09.627Z,25.19
2018-12-10T17:27:38.839Z,25.20
2018-12-10T17:30:08.705Z,25.27
2018-12-10T17:32:38.006Z,25.35
2018-12-10T17:35:07.503Z,25.16
2018-12-10T17:37:36.898Z,25.10
2018-12-10T17:40:06.339Z,25.04
2018-12-10T17:42:35.623Z,25.02
2018-12-10T17:45:05.383Z,24.96
2018-12-10T17:47:34.736Z,25.03
2018-12-10T17:50:04.144Z,25.01
2018-12-10T17:52:33.578Z,24.96
2018-12-10T17:55:02.946Z,24.93
2018-12-10T17:57:32.355Z,25.00
2018-12-10T18:00:01.953Z,25.02
2018-12-10T18:02:31.476Z,25.01
2018-12-10T18:05:00.896Z,24.93
2018-12-10T18:07:30.319Z,24.88
2018-12-10T18:09:59.808Z,24.88
2018-12-10T18:12:29.296Z,24.91
2018-12-10T18:14:58.585Z,24.89
2018-12-10T18:17:28.031Z,24.93
2018-12-10T18:19:57.616Z,24.83
2018-12-10T18:22:27.115Z,24.86
2018-12-10T18:24:56.628Z,24.88
2018-12-10T18:27:25.984Z,24.89
2018-12-10T18:29:55.247Z,24.88
2018-12-10T18:32:24.660Z,24.95
2018-12-10T18:34:53.915Z,24.95
2018-12-10T18:37:23.439Z,24.93
2018-12-10T18:39:52.975Z,24.88
2018-12-10T18:42:22.269Z,24.89
2018-12-10T18:44:51.693Z,24.83
2018-12-10T18:47:20.936Z,24.85
2018-12-10T18:49:50.297Z,25.03
2018-12-10T18:52:19.540Z,25.08
2018-12-10T18:54:48.859Z,25.17
2018-12-10T18:57:18.125Z,25.20
2018-12-10T18:59:47.430Z,25.10
2018-12-10T19:02:17.494Z,24.93
2018-12-10T19:04:47.237Z,24.91
2018-12-10T19:07:16.858Z,25.01
2018-12-10T19:09:46.305Z,24.99
2018-12-10T19:12:15.595Z,24.94
2018-12-10T19:14:44.920Z,24.91
2018-12-10T19:17:14.371Z,25.01
2018-12-10T19:19:43.897Z,25.14
2018-12-10T19:22:13.302Z,25.04
2018-12-10T19:24:42.783Z,24.94
2018-12-10T19:27:12.249Z,24.98
2018-12-10T19:29:41.524Z,24.98
2018-12-10T19:32:11.829Z,24.95
2018-12-10T19:34:41.096Z,24.91
2018-12-10T19:37:10.531Z,25.01
2018-12-10T19:39:39.863Z,25.14
2018-12-10T19:42:09.254Z,25.07
2018-12-10T19:44:38.561Z,25.01
2018-12-10T19:47:07.881Z,24.96
2018-12-10T19:49:37.061Z,25.00
2018-12-10T19:52:06.382Z,24.97
2018-12-10T19:54:35.869Z,24.98
2018-12-10T19:57:05.273Z,24.98
2018-12-10T19:59:34.652Z,25.03
2018-12-10T20:02:04.030Z,25.11
2018-12-10T20:04:33.282Z,25.06
2018-12-10T20:07:07.011Z,25.02
2018-12-10T20:09:36.587Z,24.98
2018-12-10T20:12:06.088Z,24.93
2018-12-10T20:14:35.494Z,24.95
2018-12-10T20:17:04.988Z,25.07
2018-12-10T20:19:34.298Z,25.06
2018-12-10T20:22:04.328Z,25.08
2018-12-10T20:24:33.627Z,25.08
2018-12-10T20:27:03.123Z,25.04
2018-12-10T20:29:32.585Z,25.00
2018-12-10T20:32:01.875Z,24.94
2018-12-10T20:34:31.143Z,25.03
2018-12-10T20:38:03.226Z,25.00
2018-12-10T20:40:32.583Z,24.96
2018-12-10T20:43:02.146Z,24.95
2018-12-10T20:45:31.394Z,25.08
2018-12-10T20:48:00.848Z,25.04
2018-12-10T20:50:30.226Z,24.99
2018-12-10T20:52:59.623Z,24.94
2018-12-10T20:55:28.691Z,24.96
2018-12-10T20:57:58.029Z,25.16
2018-12-10T21:00:29.488Z,25.24
2018-12-10T21:02:58.872Z,25.28
2018-12-10T21:05:28.091Z,25.31
2018-12-10T21:07:57.491Z,25.32
2018-12-10T21:10:26.787Z,25.27
2018-12-10T21:12:56.192Z,25.28
2018-12-10T21:15:25.526Z,25.17
2018-12-10T21:17:54.787Z,25.01
2018-12-10T21:20:24.227Z,25.15
2018-12-10T21:22:53.602Z,25.31
2018-12-10T21:25:22.998Z,25.37
2018-12-10T21:27:52.408Z,25.35
2018-12-10T21:30:21.703Z,25.26
2018-12-10T21:32:51.016Z,25.12
2018-12-10T21:35:20.514Z,25.08
2018-12-10T21:37:49.907Z,25.22
2018-12-10T21:40:19.120Z,25.32
2018-12-10T21:42:48.532Z,25.34
2018-12-10T21:45:17.928Z,25.31
2018-12-10T21:47:47.221Z,25.24
2018-12-10T21:50:16.503Z,25.19
2018-12-10T21:52:45.804Z,25.01
2018-12-10T21:55:17.034Z,25.19
2018-12-10T21:57:46.459Z,25.30
2018-12-10T22:00:15.680Z,25.32
2018-12-10T22:02:44.988Z,25.34
2018-12-10T22:05:14.392Z,25.28
2018-12-10T22:07:43.689Z,25.22
2018-12-10T22:10:13.028Z,25.10
2018-12-10T22:12:42.190Z,25.04
2018-12-10T22:15:11.504Z,25.23
2018-12-10T22:17:40.998Z,25.31
2018-12-10T22:20:10.396Z,25.33
2018-12-10T22:22:39.698Z,25.29
2018-12-10T22:25:09.102Z,25.22
2018-12-10T22:27:38.499Z,25.05
2018-12-10T22:30:08.344Z,25.11
2018-12-10T22:32:37.713Z,25.25
2018-12-10T22:35:07.224Z,25.30
2018-12-10T22:37:36.572Z,25.30
2018-12-10T22:40:05.736Z,25.27
2018-12-10T22:42:35.108Z,25.29
2018-12-10T22:45:04.523Z,25.18
2018-12-10T22:47:33.819Z,25.00
2018-12-10T22:50:03.122Z,25.24
2018-12-10T22:52:32.482Z,25.32
2018-12-10T22:55:01.790Z,25.33
2018-12-10T22:57:31.145Z,25.25
2018-12-10T23:00:00.507Z,25.26
2018-12-10T23:02:29.891Z,25.12
2018-12-10T23:04:59.367Z,25.14
2018-12-10T23:07:28.671Z,25.23
2018-12-10T23:09:57.951Z,25.29
2018-12-10T23:12:27.256Z,25.25
2018-12-10T23:14:56.669Z,25.28
2018-12-10T23:17:25.970Z,25.28
2018-12-10T23:19:55.465Z,25.29
2018-12-10T23:22:24.874Z,25.32
2018-12-10T23:24:54.278Z,25.36
2018-12-10T23:27:23.567Z,25.37
2018-12-10T23:29:52.882Z,25.31
2018-12-10T23:32:21.927Z,25.31
2018-12-10T23:34:51.202Z,25.33
2018-12-10T23:37:20.468Z,25.24
2018-12-10T23:39:49.979Z,25.32
2018-12-10T23:42:19.393Z,25.34
2018-12-10T23:44:54.762Z,25.30
2018-12-10T23:47:24.134Z,25.32
2018-12-10T23:49:53.348Z,25.30
2018-12-10T23:52:22.663Z,25.32
2018-12-10T23:54:52.132Z,25.30
2018-12-10T23:57:21.448Z,25.32
2018-12-10T23:59:50.840Z,25.32
